PWSweather.com
Personal Weather Stations
Station Observations
KNVELKO7
Elko, NV 89801

Elko, NV 89801

Lat: 40.963233, Lon: -115.592836

Elevation: 5230

Station Type: WS-2812

Latest ConditionsUpdated 6:29:22 AM PDT Tuesday, May 26, 2015
Currently Today's Max Today's Min Today's Average
Temperature 46.6°F8.1°C 46.6°F8.1°C 43.6°F6.4°C 44.9°F7.2°C
Dew Point 43.9°F6.6°C 43.9°F6.6°C 39.3°F4.1°C 41.7°F5.4°C
Winds 2.4 mph NE3.9 kmh NE 4.9 mph 7.9 kmh - 1.4 mph 2.3 kmh
Wind Gusts 4.0 mph6.4 kmh 5.8 mph9.3 kmh - -
Humidity 90% 90% 85% 88%
Pressure 30.06 in1017.9 mb 30.06 in1017.9 mb 30.04 in1017.3 mb -
Hour Temp Dew Point Humidity Winds Wind Gusts Pressure Precip Precip Rate Daily Precip Total
06:29 AM 46.6°F8.1°C 43.9°F6.6°C 90% 2.4 mph NE3.9 kmh NE 4.0 mph6.4 kmh 30.06 in1017.9 mb 0.00 in0.0 mm 0.00 in0.0 mm 0.00 in0.0 mm
06:24 AM 46.6°F8.1°C 43.9°F6.6°C 90% 2.2 mph NE3.5 kmh NE 4.0 mph6.4 kmh 30.06 in1017.9 mb 0.00 in0.0 mm 0.00 in0.0 mm 0.00 in0.0 mm
06:19 AM 46.4°F8.0°C 43.7°F6.5°C 90% 1.3 mph ENE2.1 kmh ENE 3.1 mph5.0 kmh 30.06 in1017.9 mb 0.00 in0.0 mm 0.00 in0.0 mm 0.00 in0.0 mm
06:14 AM 46.3°F7.9°C 43.6°F6.4°C 90% 1.5 mph N2.4 kmh N 3.4 mph5.5 kmh 30.06 in1017.9 mb 0.00 in0.0 mm 0.00 in0.0 mm 0.00 in0.0 mm
06:10 AM 46.1°F7.8°C 43.4°F6.3°C 90% 2.3 mph NE3.7 kmh NE 4.0 mph6.4 kmh 30.06 in1017.9 mb 0.00 in0.0 mm 0.00 in0.0 mm 0.00 in0.0 mm
06:05 AM 45.7°F7.6°C 43.0°F6.1°C 90% 3.3 mph ENE5.3 kmh ENE 4.0 mph6.4 kmh 30.06 in1017.9 mb 0.00 in0.0 mm 0.00 in0.0 mm 0.00 in0.0 mm
06:00 AM 45.5°F7.5°C 42.8°F6.0°C 90% 2.8 mph E4.5 kmh E 3.4 mph5.5 kmh 30.05 in1017.6 mb 0.00 in0.0 mm 0.00 in0.0 mm 0.00 in0.0 mm
05:54 AM 45.2°F7.3°C 42.5°F5.8°C 90% 1.3 mph ENE2.1 kmh ENE 2.5 mph4.0 kmh 30.06 in1017.9 mb 0.00 in0.0 mm 0.00 in0.0 mm 0.00 in0.0 mm
05:49 AM 45.0°F7.2°C 42.3°F5.7°C 90% Calm Calm 0.4 mph0.6 kmh 30.06 in1017.9 mb 0.00 in0.0 mm 0.00 in0.0 mm 0.00 in0.0 mm
05:44 AM 45.0°F7.2°C 42.3°F5.7°C 90% Calm Calm 0.4 mph0.6 kmh 30.05 in1017.6 mb 0.00 in0.0 mm 0.00 in0.0 mm 0.00 in0.0 mm
05:39 AM 45.0°F7.2°C 42.3°F5.7°C 90% 0.4 mph NNE0.6 kmh NNE 1.1 mph1.8 kmh 30.05 in1017.6 mb 0.00 in0.0 mm 0.00 in0.0 mm 0.00 in0.0 mm
05:34 AM 45.0°F7.2°C 42.3°F5.7°C 90% 0.2 mph NNW0.3 kmh NNW 1.1 mph1.8 kmh 30.05 in1017.6 mb 0.00 in0.0 mm 0.00 in0.0 mm 0.00 in0.0 mm
05:29 AM 45.0°F7.2°C 42.0°F5.6°C 89% 0.6 mph 1.0 kmh 1.1 mph1.8 kmh 30.05 in1017.6 mb 0.00 in0.0 mm 0.00 in0.0 mm 0.00 in0.0 mm
05:24 AM 45.0°F7.2°C 42.3°F5.7°C 90% 0.4 mph 0.6 kmh 3.4 mph5.5 kmh 30.05 in1017.6 mb 0.00 in0.0 mm 0.00 in0.0 mm 0.00 in0.0 mm
05:19 AM 44.8°F7.1°C 41.9°F5.5°C 89% 2.8 mph NNE4.5 kmh NNE 3.4 mph5.5 kmh 30.05 in1017.6 mb 0.00 in0.0 mm 0.00 in0.0 mm 0.00 in0.0 mm
05:14 AM 44.6°F7.0°C 41.9°F5.5°C 90% 1.5 mph NNE2.4 kmh NNE 1.8 mph2.9 kmh 30.05 in1017.6 mb 0.00 in0.0 mm 0.00 in0.0 mm 0.00 in0.0 mm
05:09 AM 44.6°F7.0°C 41.9°F5.5°C 90% 0.4 mph NNW0.6 kmh NNW 2.7 mph4.3 kmh 30.05 in1017.6 mb 0.00 in0.0 mm 0.00 in0.0 mm 0.00 in0.0 mm
05:04 AM 44.8°F7.1°C 42.1°F5.6°C 90% 2.3 mph NNW3.7 kmh NNW 2.7 mph4.3 kmh 30.05 in1017.6 mb 0.00 in0.0 mm 0.00 in0.0 mm 0.00 in0.0 mm
04:59 AM 44.8°F7.1°C 42.1°F5.6°C 90% Calm Calm 0.2 mph0.3 kmh 30.05 in1017.6 mb 0.00 in0.0 mm 0.00 in0.0 mm 0.00 in0.0 mm
04:54 AM 44.8°F7.1°C 42.1°F5.6°C 90% Calm Calm 0.2 mph0.3 kmh 30.05 in1017.6 mb 0.00 in0.0 mm 0.00 in0.0 mm 0.00 in0.0 mm
04:49 AM 44.6°F7.0°C 41.9°F5.5°C 90% 0.2 mph WNW0.3 kmh WNW 0.2 mph0.3 kmh 30.05 in1017.6 mb 0.00 in0.0 mm 0.00 in0.0 mm 0.00 in0.0 mm
04:44 AM 44.6°F7.0°C 41.7°F5.4°C 89% Calm Calm -- 30.05 in1017.6 mb 0.00 in0.0 mm 0.00 in0.0 mm 0.00 in0.0 mm
04:39 AM 44.5°F6.9°C 41.1°F5.1°C 88% Calm Calm -- 30.05 in1017.6 mb 0.00 in0.0 mm 0.00 in0.0 mm 0.00 in0.0 mm
04:34 AM 44.5°F6.9°C 41.1°F5.1°C 88% Calm Calm 1.8 mph2.9 kmh 30.05 in1017.6 mb 0.00 in0.0 mm 0.00 in0.0 mm 0.00 in0.0 mm
04:29 AM 44.5°F6.9°C 41.1°F5.1°C 88% 1.0 mph WNW1.6 kmh WNW 2.2 mph3.5 kmh 30.05 in1017.6 mb 0.00 in0.0 mm 0.00 in0.0 mm 0.00 in0.0 mm
04:24 AM 44.8°F7.1°C 41.9°F5.5°C 89% 2.1 mph WNW3.4 kmh WNW 2.2 mph3.5 kmh 30.05 in1017.6 mb 0.00 in0.0 mm 0.00 in0.0 mm 0.00 in0.0 mm
04:19 AM 45.0°F7.2°C 42.0°F5.6°C 89% 0.4 mph NNW0.6 kmh NNW 0.4 mph0.6 kmh 30.04 in1017.3 mb 0.00 in0.0 mm 0.00 in0.0 mm 0.00 in0.0 mm
04:14 AM 45.0°F7.2°C 42.0°F5.6°C 89% Calm Calm -- 30.04 in1017.3 mb 0.00 in0.0 mm 0.00 in0.0 mm 0.00 in0.0 mm
04:09 AM 45.0°F7.2°C 42.0°F5.6°C 89% Calm Calm 1.8 mph2.9 kmh 30.04 in1017.3 mb 0.00 in0.0 mm 0.00 in0.0 mm 0.00 in0.0 mm
04:04 AM 45.0°F7.2°C 42.0°F5.6°C 89% 0.7 mph ENE1.1 kmh ENE 1.8 mph2.9 kmh 30.04 in1017.3 mb 0.00 in0.0 mm 0.00 in0.0 mm 0.00 in0.0 mm
03:59 AM 45.2°F7.3°C 42.2°F5.7°C 89% 1.1 mph ENE1.8 kmh ENE 1.1 mph1.8 kmh 30.04 in1017.3 mb 0.00 in0.0 mm 0.00 in0.0 mm 0.00 in0.0 mm
03:54 AM 45.2°F7.3°C 42.2°F5.7°C 89% Calm Calm -- 30.04 in1017.3 mb 0.00 in0.0 mm 0.00 in0.0 mm 0.00 in0.0 mm
03:49 AM 45.2°F7.3°C 42.2°F5.7°C 89% Calm Calm 1.8 mph2.9 kmh 30.04 in1017.3 mb 0.00 in0.0 mm 0.00 in0.0 mm 0.00 in0.0 mm
03:44 AM 45.2°F7.3°C 41.9°F5.5°C 88% Calm Calm 2.2 mph3.5 kmh 30.04 in1017.3 mb 0.00 in0.0 mm 0.00 in0.0 mm 0.00 in0.0 mm
03:39 AM 45.4°F7.4°C 42.0°F5.6°C 88% 1.3 mph E2.1 kmh E 2.2 mph3.5 kmh 30.04 in1017.3 mb 0.00 in0.0 mm 0.00 in0.0 mm 0.00 in0.0 mm
03:34 AM 45.4°F7.4°C 42.0°F5.6°C 88% 1.8 mph N2.9 kmh N 2.2 mph3.5 kmh 30.05 in1017.6 mb 0.00 in0.0 mm 0.00 in0.0 mm 0.00 in0.0 mm
03:29 AM 45.2°F7.3°C 41.9°F5.5°C 88% 0.7 mph ENE1.1 kmh ENE 2.5 mph4.0 kmh 30.05 in1017.6 mb 0.00 in0.0 mm 0.00 in0.0 mm 0.00 in0.0 mm
03:24 AM 45.2°F7.3°C 41.9°F5.5°C 88% 2.2 mph ENE3.5 kmh ENE 2.5 mph4.0 kmh 30.04 in1017.3 mb 0.00 in0.0 mm 0.00 in0.0 mm 0.00 in0.0 mm
03:19 AM 45.4°F7.4°C 42.0°F5.6°C 88% Calm Calm 0.9 mph1.4 kmh 30.04 in1017.3 mb 0.00 in0.0 mm 0.00 in0.0 mm 0.00 in0.0 mm
03:14 AM 45.4°F7.4°C 42.0°F5.6°C 88% Calm Calm 0.7 mph1.1 kmh 30.04 in1017.3 mb 0.00 in0.0 mm 0.00 in0.0 mm 0.00 in0.0 mm
03:09 AM 45.4°F7.4°C 42.0°F5.6°C 88% Calm Calm 5.1 mph8.2 kmh 30.04 in1017.3 mb 0.00 in0.0 mm 0.00 in0.0 mm 0.00 in0.0 mm
03:04 AM 45.4°F7.4°C 42.0°F5.6°C 88% 2.5 mph 4.0 kmh 5.4 mph8.7 kmh 30.04 in1017.3 mb 0.00 in0.0 mm 0.00 in0.0 mm 0.00 in0.0 mm
02:58 AM 45.4°F7.4°C 42.0°F5.6°C 88% 4.9 mph 7.9 kmh 5.4 mph8.7 kmh 30.04 in1017.3 mb 0.00 in0.0 mm 0.00 in0.0 mm 0.00 in0.0 mm
02:53 AM 45.5°F7.5°C 42.2°F5.7°C 88% 2.8 mph 4.5 kmh 3.8 mph6.1 kmh 30.04 in1017.3 mb 0.00 in0.0 mm 0.00 in0.0 mm 0.00 in0.0 mm
02:48 AM 45.4°F7.4°C 42.0°F5.6°C 88% 0.3 mph N0.5 kmh N 2.9 mph4.7 kmh 30.04 in1017.3 mb 0.00 in0.0 mm 0.00 in0.0 mm 0.00 in0.0 mm
02:44 AM 45.4°F7.4°C 42.0°F5.6°C 88% 1.0 mph ENE1.6 kmh ENE 2.9 mph4.7 kmh 30.04 in1017.3 mb 0.00 in0.0 mm 0.00 in0.0 mm 0.00 in0.0 mm
02:39 AM 45.4°F7.4°C 42.0°F5.6°C 88% 2.7 mph ENE4.3 kmh ENE 2.9 mph4.7 kmh 30.04 in1017.3 mb 0.00 in0.0 mm 0.00 in0.0 mm 0.00 in0.0 mm
02:34 AM 45.5°F7.5°C 42.2°F5.7°C 88% Calm Calm 0.9 mph1.4 kmh 30.04 in1017.3 mb 0.00 in0.0 mm 0.00 in0.0 mm 0.00 in0.0 mm
02:29 AM 45.5°F7.5°C 42.2°F5.7°C 88% 0.2 mph ENE0.3 kmh ENE 1.6 mph2.6 kmh 30.04 in1017.3 mb 0.00 in0.0 mm 0.00 in0.0 mm 0.00 in0.0 mm
02:24 AM 45.2°F7.3°C 41.9°F5.5°C 88% 0.7 mph NNW1.1 kmh NNW 2.5 mph4.0 kmh 30.04 in1017.3 mb 0.00 in0.0 mm 0.00 in0.0 mm 0.00 in0.0 mm
02:19 AM 45.0°F7.2°C 41.7°F5.4°C 88% 1.3 mph 2.1 kmh 2.5 mph4.0 kmh 30.04 in1017.3 mb 0.00 in0.0 mm 0.00 in0.0 mm 0.00 in0.0 mm
02:14 AM 45.0°F7.2°C 41.7°F5.4°C 88% 2.0 mph 3.2 kmh 3.6 mph5.8 kmh 30.04 in1017.3 mb 0.00 in0.0 mm 0.00 in0.0 mm 0.00 in0.0 mm
02:09 AM 44.6°F7.0°C 41.3°F5.2°C 88% 1.7 mph 2.7 kmh 4.5 mph7.2 kmh 30.04 in1017.3 mb 0.00 in0.0 mm 0.00 in0.0 mm 0.00 in0.0 mm
02:04 AM 44.5°F6.9°C 41.1°F5.1°C 88% 3.5 mph 5.6 kmh 4.5 mph7.2 kmh 30.04 in1017.3 mb 0.00 in0.0 mm 0.00 in0.0 mm 0.00 in0.0 mm
01:58 AM 44.5°F6.9°C 41.1°F5.1°C 88% 2.4 mph 3.9 kmh 4.0 mph6.4 kmh 30.04 in1017.3 mb 0.00 in0.0 mm 0.00 in0.0 mm 0.00 in0.0 mm
01:53 AM 44.5°F6.9°C 41.1°F5.1°C 88% Calm Calm 2.5 mph4.0 kmh 30.04 in1017.3 mb 0.00 in0.0 mm 0.00 in0.0 mm 0.00 in0.0 mm
01:48 AM 44.5°F6.9°C 41.1°F5.1°C 88% 0.8 mph SW1.3 kmh SW 3.1 mph5.0 kmh 30.04 in1017.3 mb 0.00 in0.0 mm 0.00 in0.0 mm 0.00 in0.0 mm
01:43 AM 44.5°F6.9°C 41.1°F5.1°C 88% 1.3 mph SW2.1 kmh SW 3.1 mph5.0 kmh 30.04 in1017.3 mb 0.00 in0.0 mm 0.00 in0.0 mm 0.00 in0.0 mm
01:38 AM 44.5°F6.9°C 41.1°F5.1°C 88% 2.3 mph SW3.7 kmh SW 2.7 mph4.3 kmh 30.04 in1017.3 mb 0.00 in0.0 mm 0.00 in0.0 mm 0.00 in0.0 mm
01:33 AM 44.5°F6.9°C 41.1°F5.1°C 88% 1.3 mph WSW2.1 kmh WSW 3.6 mph5.8 kmh 30.04 in1017.3 mb 0.00 in0.0 mm 0.00 in0.0 mm 0.00 in0.0 mm
01:29 AM 44.5°F6.9°C 41.1°F5.1°C 88% 2.6 mph WSW4.2 kmh WSW 4.5 mph7.2 kmh 30.04 in1017.3 mb 0.00 in0.0 mm 0.00 in0.0 mm 0.00 in0.0 mm
01:24 AM 44.3°F6.8°C 41.0°F5.0°C 88% 4.0 mph NW6.4 kmh NW 5.8 mph9.3 kmh 30.04 in1017.3 mb 0.00 in0.0 mm 0.00 in0.0 mm 0.00 in0.0 mm
01:19 AM 44.3°F6.8°C 41.0°F5.0°C 88% 3.0 mph NW4.8 kmh NW 5.8 mph9.3 kmh 30.04 in1017.3 mb 0.00 in0.0 mm 0.00 in0.0 mm 0.00 in0.0 mm
01:14 AM 44.3°F6.8°C 40.7°F4.8°C 87% 3.5 mph NW5.6 kmh NW 4.7 mph7.6 kmh 30.04 in1017.3 mb 0.00 in0.0 mm 0.00 in0.0 mm 0.00 in0.0 mm
01:09 AM 44.1°F6.7°C 40.5°F4.7°C 87% 3.3 mph NNW5.3 kmh NNW 4.7 mph7.6 kmh 30.04 in1017.3 mb 0.00 in0.0 mm 0.00 in0.0 mm 0.00 in0.0 mm
01:04 AM 43.9°F6.6°C 40.3°F4.6°C 87% 3.9 mph NNW6.3 kmh NNW 4.7 mph7.6 kmh 30.04 in1017.3 mb 0.00 in0.0 mm 0.00 in0.0 mm 0.00 in0.0 mm
12:58 AM 43.9°F6.6°C 40.3°F4.6°C 87% 3.5 mph 5.6 kmh 4.0 mph6.4 kmh 30.04 in1017.3 mb 0.00 in0.0 mm 0.00 in0.0 mm 0.00 in0.0 mm
12:53 AM 43.9°F6.6°C 40.3°F4.6°C 87% 3.2 mph NNW5.1 kmh NNW 4.0 mph6.4 kmh 30.04 in1017.3 mb 0.00 in0.0 mm 0.00 in0.0 mm 0.00 in0.0 mm
12:48 AM 44.1°F6.7°C 40.5°F4.7°C 87% 2.8 mph NNW4.5 kmh NNW 3.4 mph5.5 kmh 30.04 in1017.3 mb 0.00 in0.0 mm 0.00 in0.0 mm 0.00 in0.0 mm
12:43 AM 44.1°F6.7°C 40.5°F4.7°C 87% 1.2 mph NNE1.9 kmh NNE 1.6 mph2.6 kmh 30.04 in1017.3 mb 0.00 in0.0 mm 0.00 in0.0 mm 0.00 in0.0 mm
12:38 AM 44.1°F6.7°C 40.5°F4.7°C 87% 0.6 mph NE1.0 kmh NE 2.5 mph4.0 kmh 30.05 in1017.6 mb 0.00 in0.0 mm 0.00 in0.0 mm 0.00 in0.0 mm
12:33 AM 44.3°F6.8°C 40.3°F4.6°C 86% 1.3 mph NE2.1 kmh NE 2.5 mph4.0 kmh 30.05 in1017.6 mb 0.00 in0.0 mm 0.00 in0.0 mm 0.00 in0.0 mm
12:28 AM 44.1°F6.7°C 40.1°F4.5°C 86% 1.1 mph NNE1.8 kmh NNE 2.7 mph4.3 kmh 30.04 in1017.3 mb 0.00 in0.0 mm 0.00 in0.0 mm 0.00 in0.0 mm
12:23 AM 44.3°F6.8°C 40.3°F4.6°C 86% 2.5 mph NNW4.0 kmh NNW 2.7 mph4.3 kmh 30.05 in1017.6 mb 0.00 in0.0 mm 0.00 in0.0 mm 0.00 in0.0 mm
12:18 AM 44.1°F6.7°C 40.1°F4.5°C 86% 1.4 mph 2.3 kmh 1.6 mph2.6 kmh 30.05 in1017.6 mb 0.00 in0.0 mm 0.00 in0.0 mm 0.00 in0.0 mm
12:14 AM 44.1°F6.7°C 40.1°F4.5°C 86% 0.2 mph 0.3 kmh 5.1 mph8.2 kmh 30.05 in1017.6 mb 0.00 in0.0 mm 0.00 in0.0 mm 0.00 in0.0 mm
12:09 AM 43.9°F6.6°C 40.0°F4.4°C 86% 0.8 mph NE1.3 kmh NE 5.1 mph8.2 kmh 30.05 in1017.6 mb 0.00 in0.0 mm 0.00 in0.0 mm 0.00 in0.0 mm
12:04 AM 43.6°F6.4°C 39.3°F4.1°C 85% 3.3 mph NE5.3 kmh NE 3.8 mph6.1 kmh 30.05 in1017.6 mb 0.00 in0.0 mm 0.00 in0.0 mm 0.00 in0.0 mm